Station: Jabiru  

  Atmospheric Gas Attenuation - ITU Rec 676-11   ----------------- dB/100km -----------------
Date Time Temp RH % AH g/m3 Dew Point Wind Direction Speed kph Gust kph Barometer mB Rainfall Since 9am 24GHz 47GHz 76GHz 122GHz 134GHz 241GHz
03/05 13:30 35.8 35 14.43 18.4 11 24 1010 0 30.5 28.1 49.5 130.7 137.6 478.1
03/05 13:20 35 36 14.24 17.7 13 19 1010.2 0 30.2 28.1 49.3 130.2 136.7 475.1
03/05 13:10 35.5 35 14.21 18.1 20 24 1010.3 0 30.1 27.9 48.9 129.1 135.5 471.0
03/05 13:00 34.8 37 14.48 18 13 20 1010.5 0 30.7 28.5 50.3 132.8 140.0 486.4
03/05 12:50 34.9 35 13.77 17.6 19 20 1010.6 0 29.2 27.4 47.7 125.9 131.4 456.6
03/05 12:40 34.9 38 14.95 18.5 17 20 1010.7 0 31.6 29.2 52.0 137.3 145.4 505.5
03/05 12:30 34.6 38 14.72 18.6 15 20 1011 0 31.2 28.9 51.3 135.6 143.2 497.8
03/05 12:20 34.4 38 14.57 18.4 7 11 1011.1 0 30.9 28.8 50.9 134.5 141.8 492.8
03/05 12:10 34.1 41 15.47 19 17 20 1011.4 0 32.8 30.2 54.5 143.9 153.4 533.1
03/05 12:00 34.1 42 15.85 19.4 15 20 1011.5 0 33.5 30.8 55.9 147.8 158.1 549.6
03/05 11:50 33.9 42 15.68 19.2 17 20 1011.6 0 33.2 30.6 55.4 146.4 156.4 543.6
03/05 11:40 33.5 43 15.72 19.2 19 24 1011.8 0 33.3 30.9 55.9 147.6 157.7 548.2
03/05 11:30 33.3 44 15.92 19.4 19 26 1011.8 0 33.7 31.2 56.8 150.0 160.6 558.4
03/05 11:20 33 45 16.03 19.8 17 22 1012.1 0 34.0 31.5 57.4 151.8 162.7 565.5
03/05 11:10 32.9 47 16.65 20.1 20 26 1012.2 0 35.3 32.6 59.9 158.5 170.9 594.1
03/05 11:00 32.7 47 16.47 20.2 19 24 1012.3 0 34.9 32.3 59.4 157.0 169.0 587.5
03/05 10:50 32.3 48 16.47 20.2 19 20 1012.3 0 35.0 32.5 59.7 157.8 169.9 590.5
03/05 10:40 32.1 51 17.31 20.7 13 17 1012.4 0 36.7 33.9 63.2 167.2 181.4 630.8
03/05 10:30 31.6 51 16.86 20.5 11 22 1012.5 0 35.8 33.4 61.8 163.4 176.6 613.9
03/05 10:20 31.5 56 18.41 21.9 7 9 1012.5 0 39.1 36.0 68.3 180.8 197.9 688.0
03/05 10:10 31.1 58 18.67 21.9 11 13 1012.5 0 39.6 36.6 69.8 184.7 202.6 704.2
03/05 10:00 30.7 58 18.27 21.5 11 17 1012.5 0 38.8 36.1 68.4 181.0 198.0 688.3
03/05 09:50 30.7 59 18.58 22 15 20 1012.4 0 39.5 36.7 69.8 184.6 202.3 703.4
03/05 09:40 30.3 60 18.5 21.9 7 9 1012.4 0 39.4 36.7 69.8 184.6 202.3 703.1
03/05 09:30 29.8 65 19.5 22.5 11 17 1012.3 0 41.5 38.7 74.6 197.5 218.0 757.8
03/05 09:20 29.5 65 19.19 22.2 13 17 1012.2 0 40.9 38.3 73.5 194.6 214.3 745.0
03/05 09:10 29.3 67 19.56 22.5 11 13 1012.2 0 41.7 39.0 75.4 199.5 220.3 765.8
03/05 09:00 29 69 19.82 22.7 9 15 1012.1 0 42.3 39.6 76.9 203.4 225.0 782.2
03/05 08:50 28.6 73 20.52 23.3 7 9 1012 0 43.8 41.1 80.5 213.1 236.8 822.9
03/05 08:40 28.2 73 20.07 22.9 11 15 1012 0 42.9 40.5 78.8 208.6 231.2 803.5
03/05 08:30 27.9 75 20.29 23.1 9 15 1011.9 0 43.4 41.0 80.2 212.2 235.5 818.3
03/05 08:20 27.6 77 20.49 23.2 7 7 1011.9 0 43.8 41.5 81.4 215.5 239.5 832.2
03/05 08:10 27.5 77 20.37 23.1 7 9 1011.8 0 43.6 41.4 81.0 214.3 237.9 826.8
03/05 08:00 27 79 20.33 23 7 11 1011.6 0 43.6 41.5 81.3 215.2 238.9 830.1
03/05 07:50 26.6 81 20.39 23.1 6 7 1011.4 0 43.7 41.8 82.0 217.0 241.1 837.6
03/05 07:40 26 85 20.69 23.3 4 7 1011.2 0 44.5 42.7 84.1 222.6 247.7 860.7
03/05 07:30 25 90 20.72 23.2 0 0 1011.1 0 44.6 43.3 85.4 226.0 251.6 873.9
03/05 07:20 24.5 92 20.59 23.1 0 0 1011 0 44.4 43.3 85.3 225.7 251.2 872.4
03/05 07:10 24.2 93 20.46 23 6 6 1010.9 0 44.2 43.2 85.0 224.9 250.1 868.5
03/05 07:00 24.2 94 20.68 23.2 2 7 1010.7 0 44.7 43.6 86.1 227.8 253.6 880.8
03/05 06:50 24.2 92 20.24 22.8 0 4 1010.5 0 43.7 42.7 83.9 222.0 246.4 855.9
03/05 06:40 24.1 93 20.35 22.9 4 6 1010.5 0 44.0 43.0 84.5 223.7 248.5 863.2
03/05 06:30 24.3 93 20.58 23.1 6 7 1010.4 0 44.4 43.3 85.4 226.1 251.6 873.8
03/05 06:20 24.4 92 20.47 23 6 6 1010.4 0 44.2 43.1 84.8 224.4 249.5 866.4
03/05 06:10 24.5 91 20.37 22.9 6 7 1010.2 0 44.0 42.8 84.1 222.7 247.5 859.6
03/05 06:00 24.5 91 20.37 22.9 6 9 1010.2 0 44.0 42.8 84.1 222.7 247.5 859.6
03/05 05:50 24.6 91 20.48 23 6 6 1010 0 44.2 43.0 84.6 223.8 248.9 864.5
03/05 05:40 24.6 90 20.26 22.8 6 7 1010 0 43.7 42.5 83.5 221.0 245.3 852.2
03/05 05:30 24.5 92 20.59 23.1 4 6 1010 0 44.4 43.2 85.2 225.6 251.0 871.8
03/05 05:20 24.5 91 20.37 22.9 4 6 1009.9 0 44.0 42.8 84.1 222.7 247.4 859.4
03/05 05:10 24.5 91 20.37 22.9 4 6 1009.9 0 44.0 42.8 84.1 222.7 247.4 859.4
03/05 05:00 24.5 92 20.59 23.1 6 6 1010 0 44.4 43.2 85.2 225.6 251.0 871.8
03/05 04:50 24.5 91 20.37 22.9 6 6 1010 0 44.0 42.8 84.1 222.7 247.4 859.5
03/05 04:40 24.6 91 20.48 23 6 6 1010 0 44.2 43.0 84.6 223.8 248.9 864.5
03/05 04:30 24.7 90 20.37 22.9 2 7 1010.1 0 43.9 42.7 83.9 222.1 246.8 857.2
03/05 04:20 24.8 90 20.49 23 2 4 1010.1 0 44.2 42.9 84.4 223.4 248.4 862.8
03/05 04:10 24.9 89 20.37 23 4 6 1010 0 43.9 42.6 83.7 221.5 246.1 854.9
03/05 04:00 25.1 88 20.37 23 9 11 1010 0 43.9 42.5 83.5 220.9 245.4 852.6
03/05 03:50 24.9 89 20.37 23 7 7 1010.1 0 43.9 42.6 83.7 221.5 246.1 854.9
03/05 03:40 24.6 91 20.48 23 7 9 1010.1 0 44.2 43.0 84.6 223.8 248.9 864.5
03/05 03:30 24.5 93 20.81 23.3 6 7 1010.1 0 44.9 43.7 86.3 228.5 254.6 884.2
03/05 03:20 24.4 92 20.47 23 4 6 1010.1 0 44.2 43.1 84.8 224.3 249.4 866.3
03/05 03:10 24.5 91 20.37 22.9 6 7 1010.1 0 44.0 42.8 84.1 222.7 247.5 859.5
03/05 03:00 24.6 90 20.26 22.8 6 7 1010.2 0 43.7 42.5 83.5 221.0 245.4 852.3
03/05 02:50 24.6 91 20.48 23 0 0 1010.3 0 44.2 43.0 84.6 223.9 248.9 864.6
03/05 02:40 24.7 91 20.6 23.1 6 7 1010.4 0 44.4 43.2 85.1 225.2 250.5 870.2
03/05 02:30 24.9 88 20.14 22.8 0 0 1010.5 0 43.4 42.2 82.6 218.6 242.5 842.4
03/05 02:20 24.9 87 19.91 22.6 0 0 1010.5 0 42.9 41.7 81.5 215.6 238.9 829.7
03/05 02:10 25 87 20.03 22.7 0 0 1010.6 0 43.2 41.9 82.0 216.9 240.5 835.3
03/05 02:00 25.1 86 19.91 22.6 6 7 1010.7 0 42.9 41.6 81.3 215.1 238.3 827.6
03/05 01:50 25.1 86 19.91 22.6 7 7 1010.8 0 42.9 41.6 81.3 215.1 238.3 827.7
03/05 01:40 25 87 20.03 22.7 6 7 1010.9 0 43.2 41.9 82.0 216.9 240.5 835.5
03/05 01:30 24.9 88 20.14 22.8 7 11 1011 0 43.4 42.2 82.6 218.7 242.6 842.7
03/05 01:20 25.1 86 19.91 22.6 9 9 1011 0 42.9 41.6 81.3 215.1 238.3 827.8
03/05 01:10 25.4 84 19.78 22.5 6 7 1011.1 0 42.6 41.2 80.4 212.6 235.3 817.5
03/05 01:00 25.3 85 19.9 22.6 6 9 1011.1 0 42.9 41.5 81.0 214.4 237.5 825.1
03/05 00:50 25.2 86 20.02 22.7 7 9 1011.2 0 43.1 41.8 81.7 216.3 239.8 832.9
03/05 00:40 25.3 86 20.13 22.8 6 7 1011.3 0 43.3 42.0 82.2 217.4 241.2 837.8
03/05 00:30 25.5 84 19.89 22.6 6 7 1011.3 0 42.8 41.4 80.8 213.8 236.8 822.5
03/05 00:20 25.5 84 19.89 22.6 6 7 1011.3 0 42.8 41.4 80.8 213.8 236.8 822.5
03/05 00:10 25.5 86 20.36 23 0 0 1011.3 0 43.8 42.3 83.1 219.8 244.2 848.2
03/05 00:00 25.6 86 20.47 23.1 2 6 1011.2 0 44.0 42.5 83.5 220.9 245.6 853.1
02/05 23:50 25.5 85 20.12 22.8 6 6 1011.1 0 43.3 41.9 81.9 216.7 240.3 834.9
02/05 23:40 25.7 84 20.11 22.8 0 0 1011.2 0 43.3 41.7 81.6 216.0 239.6 832.2
02/05 23:30 26.5 80 20.03 22.8 6 7 1011.2 0 43.0 41.2 80.4 212.7 235.8 819.1
02/05 23:20 26.6 79 19.89 22.7 7 7 1011.2 0 42.7 40.9 79.6 210.7 233.3 810.5
02/05 23:10 26.6 79 19.89 22.7 7 7 1011.2 0 42.7 40.9 79.6 210.7 233.3 810.5
02/05 23:00 26.8 77 19.6 22.4 7 9 1011 0 42.1 40.2 78.0 206.5 228.2 792.8
02/05 22:50 27 77 19.82 22.6 7 7 1011 0 42.5 40.5 78.8 208.7 230.9 802.4
02/05 22:40 27.2 75 19.52 22.4 7 9 1011.1 0 41.8 39.9 77.2 204.4 225.8 784.5
02/05 22:30 27.4 76 20 22.8 7 9 1011.1 0 42.8 40.7 79.3 209.8 232.5 807.8
02/05 22:20 27.5 75 19.84 22.7 7 9 1011.1 0 42.5 40.3 78.4 207.6 229.7 798.2
02/05 22:10 27.6 74 19.69 22.5 7 9 1011.1 0 42.2 40.0 77.6 205.4 227.1 789.3
02/05 22:00 27.7 74 19.8 22.6 7 9 1011.1 0 42.4 40.2 78.0 206.5 228.5 794.0
02/05 21:50 27.8 74 19.91 22.7 7 7 1011.1 0 42.6 40.3 78.4 207.6 229.9 798.8
02/05 21:40 27.8 74 19.91 22.7 6 6 1011.1 0 42.6 40.3 78.4 207.6 229.9 798.8
02/05 21:30 28.1 74 20.24 23 6 7 1011.1 0 43.3 40.8 79.7 210.9 233.9 813.0
02/05 21:20 28.3 73 20.18 23 6 7 1011 0 43.1 40.6 79.2 209.5 232.4 807.7
02/05 21:10 28.3 73 20.18 23 6 7 1010.9 0 43.1 40.6 79.2 209.5 232.4 807.6
02/05 21:00 28.4 72 20.02 22.9 7 9 1010.8 0 42.8 40.2 78.3 207.3 229.6 798.1

Last Refresh: 03-May-2026 13:31:53

Bureau of Meteorology